sensor_id;sensor_type;location;lat;lon;timestamp;temperature;humidity
11489;DHT22;5801;50.804;12.638;2023-05-15T04:59:11;11.20;1.00
11489;DHT22;5801;50.804;12.638;2023-05-15T05:01:37;11.00;99.90
11489;DHT22;5801;50.804;12.638;2023-05-15T05:04:03;11.30;99.90
11489;DHT22;5801;50.804;12.638;2023-05-15T05:06:28;11.50;99.90
11489;DHT22;5801;50.804;12.638;2023-05-15T13:07:52;20.40;99.20
11489;DHT22;5801;50.804;12.638;2023-05-15T13:10:20;20.20;99.20
11489;DHT22;5801;50.804;12.638;2023-05-15T13:12:54;20.30;99.90
11489;DHT22;5801;50.804;12.638;2023-05-15T13:15:37;20.50;99.90
11489;DHT22;5801;50.804;12.638;2023-05-15T13:18:08;20.70;99.90
11489;DHT22;5801;50.804;12.638;2023-05-15T13:20:43;20.60;99.90
11489;DHT22;5801;50.804;12.638;2023-05-15T13:23:10;20.70;99.90
11489;DHT22;5801;50.804;12.638;2023-05-15T13:25:36;20.70;99.90
11489;DHT22;5801;50.804;12.638;2023-05-15T13:28:04;20.60;99.90
11489;DHT22;5801;50.804;12.638;2023-05-15T13:30:31;20.20;99.90
11489;DHT22;5801;50.804;12.638;2023-05-15T13:32:57;19.70;99.90
11489;DHT22;5801;50.804;12.638;2023-05-15T13:35:23;19.50;99.90
11489;DHT22;5801;50.804;12.638;2023-05-15T13:37:48;19.40;99.90
11489;DHT22;5801;50.804;12.638;2023-05-15T13:40:14;19.50;99.90
11489;DHT22;5801;50.804;12.638;2023-05-15T13:42:41;19.50;99.90
11489;DHT22;5801;50.804;12.638;2023-05-15T13:45:14;19.50;99.90
11489;DHT22;5801;50.804;12.638;2023-05-15T13:47:41;19.50;99.90
11489;DHT22;5801;50.804;12.638;2023-05-15T13:50:11;19.40;99.90
11489;DHT22;5801;50.804;12.638;2023-05-15T13:52:37;19.60;99.90
11489;DHT22;5801;50.804;12.638;2023-05-15T13:55:03;19.60;99.90
11489;DHT22;5801;50.804;12.638;2023-05-15T13:57:31;19.50;99.90
11489;DHT22;5801;50.804;12.638;2023-05-15T13:59:57;19.60;99.90
11489;DHT22;5801;50.804;12.638;2023-05-15T14:02:23;19.70;99.90
11489;DHT22;5801;50.804;12.638;2023-05-15T14:04:52;19.90;99.90
11489;DHT22;5801;50.804;12.638;2023-05-15T14:07:20;20.10;99.90
11489;DHT22;5801;50.804;12.638;2023-05-15T14:09:46;20.20;99.90
11489;DHT22;5801;50.804;12.638;2023-05-15T14:12:11;20.20;99.90
11489;DHT22;5801;50.804;12.638;2023-05-15T14:14:37;20.10;99.90
11489;DHT22;5801;50.804;12.638;2023-05-15T14:17:02;20.10;99.90
11489;DHT22;5801;50.804;12.638;2023-05-15T14:19:28;20.30;99.90
11489;DHT22;5801;50.804;12.638;2023-05-15T14:21:54;20.30;99.90
11489;DHT22;5801;50.804;12.638;2023-05-15T14:24:19;20.40;99.90
11489;DHT22;5801;50.804;12.638;2023-05-15T14:26:45;20.50;99.90
11489;DHT22;5801;50.804;12.638;2023-05-15T14:29:11;20.40;99.90
11489;DHT22;5801;50.804;12.638;2023-05-15T14:31:36;20.40;99.90
11489;DHT22;5801;50.804;12.638;2023-05-15T14:34:02;20.30;99.90
11489;DHT22;5801;50.804;12.638;2023-05-15T14:36:29;20.00;99.90
11489;DHT22;5801;50.804;12.638;2023-05-15T14:38:55;20.00;99.90
11489;DHT22;5801;50.804;12.638;2023-05-15T14:41:20;19.80;99.90
11489;DHT22;5801;50.804;12.638;2023-05-15T14:43:46;19.90;99.90
11489;DHT22;5801;50.804;12.638;2023-05-15T14:46:11;19.80;99.90
11489;DHT22;5801;50.804;12.638;2023-05-15T14:48:37;19.70;99.90
11489;DHT22;5801;50.804;12.638;2023-05-15T14:51:02;19.60;99.90
11489;DHT22;5801;50.804;12.638;2023-05-15T14:53:28;19.70;99.90
11489;DHT22;5801;50.804;12.638;2023-05-15T14:55:53;19.60;99.90
11489;DHT22;5801;50.804;12.638;2023-05-15T14:58:19;19.50;99.90
11489;DHT22;5801;50.804;12.638;2023-05-15T15:00:44;19.60;99.90
11489;DHT22;5801;50.804;12.638;2023-05-15T15:03:12;19.60;99.90
11489;DHT22;5801;50.804;12.638;2023-05-15T15:05:37;19.60;99.90
11489;DHT22;5801;50.804;12.638;2023-05-15T15:08:08;19.50;99.90
11489;DHT22;5801;50.804;12.638;2023-05-15T15:10:38;19.50;99.90
11489;DHT22;5801;50.804;12.638;2023-05-15T15:17:56;19.50;99.90
11489;DHT22;5801;50.804;12.638;2023-05-15T15:20:22;18.90;99.90
11489;DHT22;5801;50.804;12.638;2023-05-15T15:22:49;18.80;99.90
11489;DHT22;5801;50.804;12.638;2023-05-15T15:25:15;18.70;99.90
11489;DHT22;5801;50.804;12.638;2023-05-15T15:27:41;18.70;99.90
11489;DHT22;5801;50.804;12.638;2023-05-15T15:30:08;18.50;99.90
11489;DHT22;5801;50.804;12.638;2023-05-15T15:32:34;18.40;99.90
11489;DHT22;5801;50.804;12.638;2023-05-15T15:35:00;18.30;99.90
11489;DHT22;5801;50.804;12.638;2023-05-15T15:37:30;18.10;99.90
11489;DHT22;5801;50.804;12.638;2023-05-15T15:40:00;17.90;99.90
11489;DHT22;5801;50.804;12.638;2023-05-15T15:42:26;17.80;99.90
11489;DHT22;5801;50.804;12.638;2023-05-15T15:44:52;17.80;99.90
11489;DHT22;5801;50.804;12.638;2023-05-15T15:47:18;17.60;99.90
11489;DHT22;5801;50.804;12.638;2023-05-15T15:49:43;17.50;99.90
11489;DHT22;5801;50.804;12.638;2023-05-15T15:52:09;16.70;99.90
11489;DHT22;5801;50.804;12.638;2023-05-15T15:54:35;17.10;99.90
11489;DHT22;5801;50.804;12.638;2023-05-15T15:57:01;17.50;99.90
11489;DHT22;5801;50.804;12.638;2023-05-15T15:59:27;17.60;99.90
11489;DHT22;5801;50.804;12.638;2023-05-15T16:01:52;17.80;99.90
11489;DHT22;5801;50.804;12.638;2023-05-15T16:04:18;17.70;99.90
11489;DHT22;5801;50.804;12.638;2023-05-15T16:06:43;17.60;99.90
11489;DHT22;5801;50.804;12.638;2023-05-15T16:09:09;17.60;99.90
11489;DHT22;5801;50.804;12.638;2023-05-15T16:11:34;17.70;99.90
11489;DHT22;5801;50.804;12.638;2023-05-15T16:14:00;17.80;99.90
11489;DHT22;5801;50.804;12.638;2023-05-15T16:16:25;17.90;99.90
11489;DHT22;5801;50.804;12.638;2023-05-15T16:18:51;17.90;99.90
11489;DHT22;5801;50.804;12.638;2023-05-15T16:21:16;17.80;99.90
11489;DHT22;5801;50.804;12.638;2023-05-15T16:23:42;18.00;99.90
11489;DHT22;5801;50.804;12.638;2023-05-15T16:26:08;17.80;99.90
11489;DHT22;5801;50.804;12.638;2023-05-15T16:28:37;17.80;99.90
11489;DHT22;5801;50.804;12.638;2023-05-15T16:31:02;17.90;99.90
11489;DHT22;5801;50.804;12.638;2023-05-15T16:33:29;17.90;99.90
11489;DHT22;5801;50.804;12.638;2023-05-15T16:35:55;18.10;99.90
11489;DHT22;5801;50.804;12.638;2023-05-15T16:38:20;17.80;99.90
11489;DHT22;5801;50.804;12.638;2023-05-15T16:40:47;17.80;99.90
11489;DHT22;5801;50.804;12.638;2023-05-15T16:43:12;17.70;99.90
11489;DHT22;5801;50.804;12.638;2023-05-15T16:45:38;17.60;99.90
11489;DHT22;5801;50.804;12.638;2023-05-15T16:48:04;17.50;99.90
11489;DHT22;5801;50.804;12.638;2023-05-15T16:50:30;17.40;99.90
11489;DHT22;5801;50.804;12.638;2023-05-15T16:52:56;17.30;99.90
11489;DHT22;5801;50.804;12.638;2023-05-15T16:55:22;17.30;99.90
11489;DHT22;5801;50.804;12.638;2023-05-15T16:57:47;17.40;99.90
11489;DHT22;5801;50.804;12.638;2023-05-15T17:00:14;17.50;99.90
11489;DHT22;5801;50.804;12.638;2023-05-15T17:02:40;17.20;99.90
11489;DHT22;5801;50.804;12.638;2023-05-15T17:05:09;17.40;99.90
11489;DHT22;5801;50.804;12.638;2023-05-15T17:07:36;17.20;99.90
11489;DHT22;5801;50.804;12.638;2023-05-15T17:10:02;17.10;99.90
11489;DHT22;5801;50.804;12.638;2023-05-15T17:12:28;17.00;99.90
11489;DHT22;5801;50.804;12.638;2023-05-15T17:14:54;16.90;99.90
11489;DHT22;5801;50.804;12.638;2023-05-15T17:17:19;16.90;99.90
11489;DHT22;5801;50.804;12.638;2023-05-15T17:19:45;16.90;99.90
11489;DHT22;5801;50.804;12.638;2023-05-15T17:22:10;16.70;99.90
11489;DHT22;5801;50.804;12.638;2023-05-15T17:24:35;16.50;99.90
11489;DHT22;5801;50.804;12.638;2023-05-15T17:27:01;16.50;99.90
11489;DHT22;5801;50.804;12.638;2023-05-15T17:29:27;16.50;99.90
11489;DHT22;5801;50.804;12.638;2023-05-15T17:31:52;16.50;99.90
11489;DHT22;5801;50.804;12.638;2023-05-15T17:34:18;16.40;99.90
11489;DHT22;5801;50.804;12.638;2023-05-15T17:36:43;16.30;99.90
11489;DHT22;5801;50.804;12.638;2023-05-15T17:39:09;16.30;99.90
11489;DHT22;5801;50.804;12.638;2023-05-15T17:41:35;16.30;99.90
11489;DHT22;5801;50.804;12.638;2023-05-15T17:44:01;16.00;99.90
11489;DHT22;5801;50.804;12.638;2023-05-15T17:46:27;16.30;99.90
11489;DHT22;5801;50.804;12.638;2023-05-15T17:48:52;16.30;99.90
11489;DHT22;5801;50.804;12.638;2023-05-15T17:51:18;16.30;99.90
11489;DHT22;5801;50.804;12.638;2023-05-15T17:53:43;16.10;99.90
11489;DHT22;5801;50.804;12.638;2023-05-15T17:56:09;16.10;99.90
11489;DHT22;5801;50.804;12.638;2023-05-15T17:58:35;16.10;99.90
11489;DHT22;5801;50.804;12.638;2023-05-15T18:44:53;16.00;99.90
11489;DHT22;5801;50.804;12.638;2023-05-15T18:47:18;14.80;99.90
11489;DHT22;5801;50.804;12.638;2023-05-15T18:49:44;15.50;99.90
11489;DHT22;5801;50.804;12.638;2023-05-15T18:52:09;14.60;99.90
11489;DHT22;5801;50.804;12.638;2023-05-15T18:54:35;14.40;1.00
11489;DHT22;5801;50.804;12.638;2023-05-15T18:57:01;14.30;99.90
11489;DHT22;5801;50.804;12.638;2023-05-15T18:59:27;14.20;99.90
11489;DHT22;5801;50.804;12.638;2023-05-15T19:01:53;14.10;99.90
11489;DHT22;5801;50.804;12.638;2023-05-15T19:04:19;13.90;99.90
11489;DHT22;5801;50.804;12.638;2023-05-15T19:06:45;13.90;99.90
11489;DHT22;5801;50.804;12.638;2023-05-15T19:09:17;13.80;99.90
11489;DHT22;5801;50.804;12.638;2023-05-15T19:11:43;13.60;99.90
11489;DHT22;5801;50.804;12.638;2023-05-15T19:14:13;13.50;99.90
11489;DHT22;5801;50.804;12.638;2023-05-15T19:16:41;13.50;99.90
11489;DHT22;5801;50.804;12.638;2023-05-15T19:19:06;13.40;99.90
11489;DHT22;5801;50.804;12.638;2023-05-15T19:21:32;13.30;99.90
11489;DHT22;5801;50.804;12.638;2023-05-15T19:23:58;13.30;99.90
11489;DHT22;5801;50.804;12.638;2023-05-15T19:26:23;13.50;99.90
